sensor_id;sensor_type;location;lat;lon;timestamp;temperature;humidity
20815;DHT22;10568;48.176;16.316;2023-12-22T00:02:09;6.40;99.90
20815;DHT22;10568;48.176;16.316;2023-12-22T00:04:35;6.40;99.90
20815;DHT22;10568;48.176;16.316;2023-12-22T00:07:00;6.30;99.90
20815;DHT22;10568;48.176;16.316;2023-12-22T00:09:26;6.30;99.90
20815;DHT22;10568;48.176;16.316;2023-12-22T00:15:04;6.20;99.90
20815;DHT22;10568;48.176;16.316;2023-12-22T00:17:30;6.20;99.90
20815;DHT22;10568;48.176;16.316;2023-12-22T00:19:56;6.20;99.90
20815;DHT22;10568;48.176;16.316;2023-12-22T00:22:24;6.30;99.90
20815;DHT22;10568;48.176;16.316;2023-12-22T00:24:53;6.20;99.90
20815;DHT22;10568;48.176;16.316;2023-12-22T00:27:18;6.20;99.90
20815;DHT22;10568;48.176;16.316;2023-12-22T00:29:44;6.10;99.90
20815;DHT22;10568;48.176;16.316;2023-12-22T00:32:10;6.10;99.90
20815;DHT22;10568;48.176;16.316;2023-12-22T00:34:36;6.10;99.90
20815;DHT22;10568;48.176;16.316;2023-12-22T00:37:02;6.10;99.90
20815;DHT22;10568;48.176;16.316;2023-12-22T00:39:30;6.10;99.90
20815;DHT22;10568;48.176;16.316;2023-12-22T00:41:56;6.00;99.90
20815;DHT22;10568;48.176;16.316;2023-12-22T00:44:22;6.00;99.90
20815;DHT22;10568;48.176;16.316;2023-12-22T00:46:47;6.00;99.90
20815;DHT22;10568;48.176;16.316;2023-12-22T00:49:13;5.90;99.90
20815;DHT22;10568;48.176;16.316;2023-12-22T00:51:39;5.90;99.90
20815;DHT22;10568;48.176;16.316;2023-12-22T00:54:04;5.90;99.90
20815;DHT22;10568;48.176;16.316;2023-12-22T00:56:30;5.90;99.90
20815;DHT22;10568;48.176;16.316;2023-12-22T00:58:56;5.80;99.90
20815;DHT22;10568;48.176;16.316;2023-12-22T01:01:21;5.80;99.90
20815;DHT22;10568;48.176;16.316;2023-12-22T01:03:47;5.80;99.90
20815;DHT22;10568;48.176;16.316;2023-12-22T01:06:13;5.70;99.90
20815;DHT22;10568;48.176;16.316;2023-12-22T01:08:39;5.60;99.90
20815;DHT22;10568;48.176;16.316;2023-12-22T01:11:05;5.70;99.90
20815;DHT22;10568;48.176;16.316;2023-12-22T01:13:31;5.70;99.90
20815;DHT22;10568;48.176;16.316;2023-12-22T01:15:56;5.80;99.90
20815;DHT22;10568;48.176;16.316;2023-12-22T01:18:22;5.80;99.90
20815;DHT22;10568;48.176;16.316;2023-12-22T01:20:48;5.80;99.90
20815;DHT22;10568;48.176;16.316;2023-12-22T01:23:14;5.80;99.90
20815;DHT22;10568;48.176;16.316;2023-12-22T01:25:40;5.90;99.90
20815;DHT22;10568;48.176;16.316;2023-12-22T01:28:06;5.90;99.90
20815;DHT22;10568;48.176;16.316;2023-12-22T01:30:31;5.90;99.90
20815;DHT22;10568;48.176;16.316;2023-12-22T01:32:57;5.90;99.90
20815;DHT22;10568;48.176;16.316;2023-12-22T01:35:22;5.90;99.90
20815;DHT22;10568;48.176;16.316;2023-12-22T01:37:49;5.80;99.90
20815;DHT22;10568;48.176;16.316;2023-12-22T01:40:15;5.80;99.90
20815;DHT22;10568;48.176;16.316;2023-12-22T01:42:40;5.80;99.90
20815;DHT22;10568;48.176;16.316;2023-12-22T01:45:06;5.80;99.90
20815;DHT22;10568;48.176;16.316;2023-12-22T01:47:33;5.70;99.90
20815;DHT22;10568;48.176;16.316;2023-12-22T01:49:59;5.80;99.90
20815;DHT22;10568;48.176;16.316;2023-12-22T01:52:25;5.80;99.90
20815;DHT22;10568;48.176;16.316;2023-12-22T01:54:51;5.80;99.90
20815;DHT22;10568;48.176;16.316;2023-12-22T01:57:18;5.70;99.90
20815;DHT22;10568;48.176;16.316;2023-12-22T01:59:46;5.80;99.90
20815;DHT22;10568;48.176;16.316;2023-12-22T02:02:13;5.80;99.90
20815;DHT22;10568;48.176;16.316;2023-12-22T02:04:39;5.80;99.90
20815;DHT22;10568;48.176;16.316;2023-12-22T02:07:06;5.80;99.90
20815;DHT22;10568;48.176;16.316;2023-12-22T02:09:34;5.80;99.90
20815;DHT22;10568;48.176;16.316;2023-12-22T02:12:02;5.80;99.90
20815;DHT22;10568;48.176;16.316;2023-12-22T02:14:28;5.80;99.90
20815;DHT22;10568;48.176;16.316;2023-12-22T02:19:56;5.90;99.90
20815;DHT22;10568;48.176;16.316;2023-12-22T02:22:22;5.90;99.90
20815;DHT22;10568;48.176;16.316;2023-12-22T02:24:48;6.00;99.90
20815;DHT22;10568;48.176;16.316;2023-12-22T02:30:14;6.00;99.90
20815;DHT22;10568;48.176;16.316;2023-12-22T02:32:43;6.00;99.90
20815;DHT22;10568;48.176;16.316;2023-12-22T02:35:25;5.90;99.90
20815;DHT22;10568;48.176;16.316;2023-12-22T02:37:52;6.00;99.90
20815;DHT22;10568;48.176;16.316;2023-12-22T02:40:19;5.90;99.90
20815;DHT22;10568;48.176;16.316;2023-12-22T02:42:46;5.90;99.90
20815;DHT22;10568;48.176;16.316;2023-12-22T02:45:16;5.90;99.90
20815;DHT22;10568;48.176;16.316;2023-12-22T02:47:43;5.80;99.90
20815;DHT22;10568;48.176;16.316;2023-12-22T02:50:09;5.80;99.90
20815;DHT22;10568;48.176;16.316;2023-12-22T02:52:35;5.70;99.90
20815;DHT22;10568;48.176;16.316;2023-12-22T02:55:02;5.70;99.90
20815;DHT22;10568;48.176;16.316;2023-12-22T02:57:27;5.70;99.90
20815;DHT22;10568;48.176;16.316;2023-12-22T02:59:53;5.60;99.90
20815;DHT22;10568;48.176;16.316;2023-12-22T03:02:18;5.60;99.90
20815;DHT22;10568;48.176;16.316;2023-12-22T03:04:44;5.60;99.90
20815;DHT22;10568;48.176;16.316;2023-12-22T03:07:12;5.50;99.90
20815;DHT22;10568;48.176;16.316;2023-12-22T03:09:37;5.60;99.90
20815;DHT22;10568;48.176;16.316;2023-12-22T03:12:03;5.50;99.90
20815;DHT22;10568;48.176;16.316;2023-12-22T03:14:32;5.60;99.90
20815;DHT22;10568;48.176;16.316;2023-12-22T03:17:02;5.50;99.90
20815;DHT22;10568;48.176;16.316;2023-12-22T03:19:29;5.50;99.90
20815;DHT22;10568;48.176;16.316;2023-12-22T03:21:54;5.50;99.90
20815;DHT22;10568;48.176;16.316;2023-12-22T03:24:20;5.40;99.90
20815;DHT22;10568;48.176;16.316;2023-12-22T03:26:48;5.30;99.90
20815;DHT22;10568;48.176;16.316;2023-12-22T03:29:14;5.30;99.90
20815;DHT22;10568;48.176;16.316;2023-12-22T03:31:40;5.30;99.90
20815;DHT22;10568;48.176;16.316;2023-12-22T03:34:06;5.30;99.90
20815;DHT22;10568;48.176;16.316;2023-12-22T03:36:32;5.20;99.90
20815;DHT22;10568;48.176;16.316;2023-12-22T03:38:58;5.20;99.90
20815;DHT22;10568;48.176;16.316;2023-12-22T03:41:24;5.20;99.90
20815;DHT22;10568;48.176;16.316;2023-12-22T03:43:49;5.10;99.90
20815;DHT22;10568;48.176;16.316;2023-12-22T03:46:15;5.20;99.90
20815;DHT22;10568;48.176;16.316;2023-12-22T03:48:41;5.20;99.90
20815;DHT22;10568;48.176;16.316;2023-12-22T03:51:07;5.30;99.90
20815;DHT22;10568;48.176;16.316;2023-12-22T03:53:32;5.30;99.90
20815;DHT22;10568;48.176;16.316;2023-12-22T03:55:58;5.30;99.90
20815;DHT22;10568;48.176;16.316;2023-12-22T03:58:24;5.30;99.90
20815;DHT22;10568;48.176;16.316;2023-12-22T04:00:51;5.30;99.90
20815;DHT22;10568;48.176;16.316;2023-12-22T04:03:17;5.30;99.90
20815;DHT22;10568;48.176;16.316;2023-12-22T04:05:43;5.30;99.90
20815;DHT22;10568;48.176;16.316;2023-12-22T04:08:08;5.30;99.90
20815;DHT22;10568;48.176;16.316;2023-12-22T04:10:34;5.30;99.90
20815;DHT22;10568;48.176;16.316;2023-12-22T04:12:59;5.30;99.90
20815;DHT22;10568;48.176;16.316;2023-12-22T04:15:25;5.30;99.90
20815;DHT22;10568;48.176;16.316;2023-12-22T04:17:51;5.20;99.90
20815;DHT22;10568;48.176;16.316;2023-12-22T04:20:16;5.10;99.90
20815;DHT22;10568;48.176;16.316;2023-12-22T04:22:42;5.00;99.90
20815;DHT22;10568;48.176;16.316;2023-12-22T04:25:08;5.10;99.90
20815;DHT22;10568;48.176;16.316;2023-12-22T04:27:34;5.10;99.90
20815;DHT22;10568;48.176;16.316;2023-12-22T04:30:00;5.10;99.90
20815;DHT22;10568;48.176;16.316;2023-12-22T04:32:26;5.10;99.90
20815;DHT22;10568;48.176;16.316;2023-12-22T04:34:52;5.20;99.90
20815;DHT22;10568;48.176;16.316;2023-12-22T04:37:17;5.20;99.90
20815;DHT22;10568;48.176;16.316;2023-12-22T04:39:43;5.20;99.90
20815;DHT22;10568;48.176;16.316;2023-12-22T04:42:09;5.30;99.90
20815;DHT22;10568;48.176;16.316;2023-12-22T04:44:34;5.30;99.90
20815;DHT22;10568;48.176;16.316;2023-12-22T04:47:00;5.40;99.90
20815;DHT22;10568;48.176;16.316;2023-12-22T04:49:26;5.40;99.90
20815;DHT22;10568;48.176;16.316;2023-12-22T04:51:52;5.40;99.90
20815;DHT22;10568;48.176;16.316;2023-12-22T04:54:17;5.50;99.90
20815;DHT22;10568;48.176;16.316;2023-12-22T04:56:43;5.50;99.90
20815;DHT22;10568;48.176;16.316;2023-12-22T04:59:08;5.50;99.90
20815;DHT22;10568;48.176;16.316;2023-12-22T05:01:34;5.60;99.90
20815;DHT22;10568;48.176;16.316;2023-12-22T05:04:00;5.60;99.90
20815;DHT22;10568;48.176;16.316;2023-12-22T05:06:27;5.60;99.90
20815;DHT22;10568;48.176;16.316;2023-12-22T05:08:54;5.60;99.90
20815;DHT22;10568;48.176;16.316;2023-12-22T05:11:20;5.70;99.90
20815;DHT22;10568;48.176;16.316;2023-12-22T05:13:45;5.70;99.90
20815;DHT22;10568;48.176;16.316;2023-12-22T05:16:11;5.70;99.90
20815;DHT22;10568;48.176;16.316;2023-12-22T05:18:37;5.70;99.90
20815;DHT22;10568;48.176;16.316;2023-12-22T05:21:03;5.80;99.90
20815;DHT22;10568;48.176;16.316;2023-12-22T05:23:29;5.80;99.90
20815;DHT22;10568;48.176;16.316;2023-12-22T05:25:55;5.70;99.90
20815;DHT22;10568;48.176;16.316;2023-12-22T05:28:20;5.70;99.90
20815;DHT22;10568;48.176;16.316;2023-12-22T05:30:46;5.70;99.90
20815;DHT22;10568;48.176;16.316;2023-12-22T05:33:12;5.70;99.90
20815;DHT22;10568;48.176;16.316;2023-12-22T05:35:38;5.70;99.90
20815;DHT22;10568;48.176;16.316;2023-12-22T05:38:04;5.70;99.90
20815;DHT22;10568;48.176;16.316;2023-12-22T05:40:31;5.70;99.90
20815;DHT22;10568;48.176;16.316;2023-12-22T05:42:57;5.60;99.90
20815;DHT22;10568;48.176;16.316;2023-12-22T05:45:22;5.70;99.90
20815;DHT22;10568;48.176;16.316;2023-12-22T05:47:50;5.70;99.90
20815;DHT22;10568;48.176;16.316;2023-12-22T05:50:16;5.60;99.90
20815;DHT22;10568;48.176;16.316;2023-12-22T05:52:42;5.50;99.90
20815;DHT22;10568;48.176;16.316;2023-12-22T05:55:10;5.50;99.90
20815;DHT22;10568;48.176;16.316;2023-12-22T05:57:36;5.50;99.90
20815;DHT22;10568;48.176;16.316;2023-12-22T06:00:01;5.40;99.90
20815;DHT22;10568;48.176;16.316;2023-12-22T06:02:30;5.40;99.90
20815;DHT22;10568;48.176;16.316;2023-12-22T06:04:55;5.40;99.90
20815;DHT22;10568;48.176;16.316;2023-12-22T06:07:21;5.40;99.90
20815;DHT22;10568;48.176;16.316;2023-12-22T06:09:46;5.30;99.90
20815;DHT22;10568;48.176;16.316;2023-12-22T06:12:12;5.30;99.90
20815;DHT22;10568;48.176;16.316;2023-12-22T06:14:38;5.30;99.90
20815;DHT22;10568;48.176;16.316;2023-12-22T06:17:04;5.30;99.90
20815;DHT22;10568;48.176;16.316;2023-12-22T06:19:29;5.20;99.90
20815;DHT22;10568;48.176;16.316;2023-12-22T06:21:56;5.20;99.90
20815;DHT22;10568;48.176;16.316;2023-12-22T06:24:23;5.10;99.90
20815;DHT22;10568;48.176;16.316;2023-12-22T06:26:49;5.10;99.90
20815;DHT22;10568;48.176;16.316;2023-12-22T06:29:15;5.00;99.90
20815;DHT22;10568;48.176;16.316;2023-12-22T06:31:41;5.00;99.90
20815;DHT22;10568;48.176;16.316;2023-12-22T06:34:06;5.00;99.90
20815;DHT22;10568;48.176;16.316;2023-12-22T06:36:32;4.90;99.90
20815;DHT22;10568;48.176;16.316;2023-12-22T06:38:58;4.90;99.90
20815;DHT22;10568;48.176;16.316;2023-12-22T06:43:50;4.80;99.90
20815;DHT22;10568;48.176;16.316;2023-12-22T06:46:17;4.80;99.90
20815;DHT22;10568;48.176;16.316;2023-12-22T06:48:43;4.80;99.90
20815;DHT22;10568;48.176;16.316;2023-12-22T06:51:23;4.80;99.90
20815;DHT22;10568;48.176;16.316;2023-12-22T06:53:50;4.70;99.90
20815;DHT22;10568;48.176;16.316;2023-12-22T06:58:46;4.80;99.90
20815;DHT22;10568;48.176;16.316;2023-12-22T07:01:28;4.70;99.90
20815;DHT22;10568;48.176;16.316;2023-12-22T07:03:53;4.80;99.90
20815;DHT22;10568;48.176;16.316;2023-12-22T07:06:20;4.80;99.90
20815;DHT22;10568;48.176;16.316;2023-12-22T07:08:57;4.80;99.90
20815;DHT22;10568;48.176;16.316;2023-12-22T07:11:22;4.90;99.90
20815;DHT22;10568;48.176;16.316;2023-12-22T07:13:48;4.90;99.90
20815;DHT22;10568;48.176;16.316;2023-12-22T07:16:15;4.90;99.90
20815;DHT22;10568;48.176;16.316;2023-12-22T07:18:41;4.90;99.90
20815;DHT22;10568;48.176;16.316;2023-12-22T07:21:06;4.90;99.90
20815;DHT22;10568;48.176;16.316;2023-12-22T07:23:32;4.90;99.90
20815;DHT22;10568;48.176;16.316;2023-12-22T07:25:58;4.90;99.90
20815;DHT22;10568;48.176;16.316;2023-12-22T07:28:24;4.90;99.90
20815;DHT22;10568;48.176;16.316;2023-12-22T07:30:49;4.90;99.90
20815;DHT22;10568;48.176;16.316;2023-12-22T07:33:15;4.90;99.90
20815;DHT22;10568;48.176;16.316;2023-12-22T07:35:41;5.00;99.90
20815;DHT22;10568;48.176;16.316;2023-12-22T07:38:06;5.00;99.90
20815;DHT22;10568;48.176;16.316;2023-12-22T07:40:32;5.00;99.90
20815;DHT22;10568;48.176;16.316;2023-12-22T07:42:58;5.10;99.90
20815;DHT22;10568;48.176;16.316;2023-12-22T07:45:25;5.10;99.90
20815;DHT22;10568;48.176;16.316;2023-12-22T07:47:50;5.20;99.90
20815;DHT22;10568;48.176;16.316;2023-12-22T07:50:16;5.10;99.90
20815;DHT22;10568;48.176;16.316;2023-12-22T07:52:42;5.20;99.90
20815;DHT22;10568;48.176;16.316;2023-12-22T07:55:09;5.30;99.90
20815;DHT22;10568;48.176;16.316;2023-12-22T07:57:36;5.30;99.90
20815;DHT22;10568;48.176;16.316;2023-12-22T08:00:03;5.30;99.90
20815;DHT22;10568;48.176;16.316;2023-12-22T08:02:30;5.30;99.90
20815;DHT22;10568;48.176;16.316;2023-12-22T08:04:55;5.40;99.90
20815;DHT22;10568;48.176;16.316;2023-12-22T08:07:21;5.30;99.90
20815;DHT22;10568;48.176;16.316;2023-12-22T08:09:47;5.30;99.90
20815;DHT22;10568;48.176;16.316;2023-12-22T08:12:12;5.40;99.90
20815;DHT22;10568;48.176;16.316;2023-12-22T08:14:38;5.40;99.90
20815;DHT22;10568;48.176;16.316;2023-12-22T08:17:04;5.40;99.90
20815;DHT22;10568;48.176;16.316;2023-12-22T08:19:30;5.40;99.90
20815;DHT22;10568;48.176;16.316;2023-12-22T08:21:56;5.40;99.90
20815;DHT22;10568;48.176;16.316;2023-12-22T08:24:22;5.50;99.90
20815;DHT22;10568;48.176;16.316;2023-12-22T08:26:48;5.50;99.90
20815;DHT22;10568;48.176;16.316;2023-12-22T08:29:14;5.50;99.90
20815;DHT22;10568;48.176;16.316;2023-12-22T08:31:39;5.40;99.90
20815;DHT22;10568;48.176;16.316;2023-12-22T08:34:05;5.30;99.90
20815;DHT22;10568;48.176;16.316;2023-12-22T08:36:31;5.40;99.90
20815;DHT22;10568;48.176;16.316;2023-12-22T08:38:57;5.40;99.90
20815;DHT22;10568;48.176;16.316;2023-12-22T08:41:23;5.40;99.90
20815;DHT22;10568;48.176;16.316;2023-12-22T08:43:49;5.40;99.90
20815;DHT22;10568;48.176;16.316;2023-12-22T08:46:15;5.40;99.90
20815;DHT22;10568;48.176;16.316;2023-12-22T08:48:41;5.50;99.90
20815;DHT22;10568;48.176;16.316;2023-12-22T08:51:06;5.50;99.90
20815;DHT22;10568;48.176;16.316;2023-12-22T08:53:33;5.50;99.90
20815;DHT22;10568;48.176;16.316;2023-12-22T08:56:01;5.60;99.90
20815;DHT22;10568;48.176;16.316;2023-12-22T08:58:28;5.50;99.90
20815;DHT22;10568;48.176;16.316;2023-12-22T09:00:54;5.50;99.90
20815;DHT22;10568;48.176;16.316;2023-12-22T09:03:20;5.50;99.90
20815;DHT22;10568;48.176;16.316;2023-12-22T09:05:45;5.50;99.90
20815;DHT22;10568;48.176;16.316;2023-12-22T09:08:13;5.60;99.90
20815;DHT22;10568;48.176;16.316;2023-12-22T09:10:38;5.60;99.90
20815;DHT22;10568;48.176;16.316;2023-12-22T09:13:04;5.60;99.90
20815;DHT22;10568;48.176;16.316;2023-12-22T09:15:30;5.60;99.90
20815;DHT22;10568;48.176;16.316;2023-12-22T09:18:32;5.70;99.90
20815;DHT22;10568;48.176;16.316;2023-12-22T09:20:58;5.80;99.90
20815;DHT22;10568;48.176;16.316;2023-12-22T09:23:24;5.90;99.90
20815;DHT22;10568;48.176;16.316;2023-12-22T09:25:50;6.00;99.90
20815;DHT22;10568;48.176;16.316;2023-12-22T09:28:16;6.20;99.90
20815;DHT22;10568;48.176;16.316;2023-12-22T09:30:41;6.20;99.90
20815;DHT22;10568;48.176;16.316;2023-12-22T09:33:10;6.30;99.90
20815;DHT22;10568;48.176;16.316;2023-12-22T09:35:36;6.30;99.90
20815;DHT22;10568;48.176;16.316;2023-12-22T09:38:03;6.40;99.90
20815;DHT22;10568;48.176;16.316;2023-12-22T09:40:29;6.50;99.90
20815;DHT22;10568;48.176;16.316;2023-12-22T09:42:56;6.50;99.90
20815;DHT22;10568;48.176;16.316;2023-12-22T09:45:32;6.60;99.90
20815;DHT22;10568;48.176;16.316;2023-12-22T09:48:00;6.50;99.90
20815;DHT22;10568;48.176;16.316;2023-12-22T09:50:27;6.50;99.90
20815;DHT22;10568;48.176;16.316;2023-12-22T09:52:52;6.50;99.90
20815;DHT22;10568;48.176;16.316;2023-12-22T09:55:19;6.40;99.90
20815;DHT22;10568;48.176;16.316;2023-12-22T09:57:47;6.40;99.90
20815;DHT22;10568;48.176;16.316;2023-12-22T10:00:14;6.40;99.90
20815;DHT22;10568;48.176;16.316;2023-12-22T10:02:41;6.40;99.90
20815;DHT22;10568;48.176;16.316;2023-12-22T10:05:11;6.40;99.90
20815;DHT22;10568;48.176;16.316;2023-12-22T10:07:40;6.50;99.90
20815;DHT22;10568;48.176;16.316;2023-12-22T10:10:08;6.40;99.90
20815;DHT22;10568;48.176;16.316;2023-12-22T10:12:36;6.40;99.90
20815;DHT22;10568;48.176;16.316;2023-12-22T10:15:03;6.30;99.90
20815;DHT22;10568;48.176;16.316;2023-12-22T10:17:30;6.30;99.90
20815;DHT22;10568;48.176;16.316;2023-12-22T10:19:57;6.40;99.90
20815;DHT22;10568;48.176;16.316;2023-12-22T10:22:22;6.30;99.90
20815;DHT22;10568;48.176;16.316;2023-12-22T10:24:49;6.40;99.90
20815;DHT22;10568;48.176;16.316;2023-12-22T10:27:19;6.40;99.90
20815;DHT22;10568;48.176;16.316;2023-12-22T10:29:55;6.40;99.90
20815;DHT22;10568;48.176;16.316;2023-12-22T10:32:22;6.50;99.90
20815;DHT22;10568;48.176;16.316;2023-12-22T10:34:50;6.50;99.90
20815;DHT22;10568;48.176;16.316;2023-12-22T10:37:16;6.70;99.90
20815;DHT22;10568;48.176;16.316;2023-12-22T10:39:42;6.90;99.90
20815;DHT22;10568;48.176;16.316;2023-12-22T10:42:09;7.10;99.90
20815;DHT22;10568;48.176;16.316;2023-12-22T10:45:09;7.30;99.90
20815;DHT22;10568;48.176;16.316;2023-12-22T10:47:35;7.40;99.90
20815;DHT22;10568;48.176;16.316;2023-12-22T10:50:04;7.50;99.90
20815;DHT22;10568;48.176;16.316;2023-12-22T10:52:29;7.50;99.90
20815;DHT22;10568;48.176;16.316;2023-12-22T10:54:59;7.50;99.90
20815;DHT22;10568;48.176;16.316;2023-12-22T10:57:26;7.60;99.90
20815;DHT22;10568;48.176;16.316;2023-12-22T10:59:53;7.70;99.90
20815;DHT22;10568;48.176;16.316;2023-12-22T11:02:22;7.70;99.90
20815;DHT22;10568;48.176;16.316;2023-12-22T11:05:00;7.60;99.90
20815;DHT22;10568;48.176;16.316;2023-12-22T11:07:28;7.70;99.90
20815;DHT22;10568;48.176;16.316;2023-12-22T11:09:56;7.60;99.90
20815;DHT22;10568;48.176;16.316;2023-12-22T11:12:24;7.60;99.90
20815;DHT22;10568;48.176;16.316;2023-12-22T11:14:52;7.60;99.90
20815;DHT22;10568;48.176;16.316;2023-12-22T11:17:22;7.50;99.90
20815;DHT22;10568;48.176;16.316;2023-12-22T11:19:49;7.40;99.90
20815;DHT22;10568;48.176;16.316;2023-12-22T11:22:17;7.20;99.90
20815;DHT22;10568;48.176;16.316;2023-12-22T11:24:49;7.10;99.90
20815;DHT22;10568;48.176;16.316;2023-12-22T11:27:19;6.90;99.90
20815;DHT22;10568;48.176;16.316;2023-12-22T11:29:49;6.90;99.90
20815;DHT22;10568;48.176;16.316;2023-12-22T11:32:16;6.80;99.90
20815;DHT22;10568;48.176;16.316;2023-12-22T11:34:46;6.70;99.90
20815;DHT22;10568;48.176;16.316;2023-12-22T11:37:14;6.60;99.90
20815;DHT22;10568;48.176;16.316;2023-12-22T11:39:43;6.60;99.90
20815;DHT22;10568;48.176;16.316;2023-12-22T11:42:14;6.50;99.90
20815;DHT22;10568;48.176;16.316;2023-12-22T11:44:41;6.40;99.90
20815;DHT22;10568;48.176;16.316;2023-12-22T11:47:08;6.20;99.90
20815;DHT22;10568;48.176;16.316;2023-12-22T11:49:38;6.20;99.90
20815;DHT22;10568;48.176;16.316;2023-12-22T11:52:11;6.20;99.90
20815;DHT22;10568;48.176;16.316;2023-12-22T11:54:50;6.40;99.90
20815;DHT22;10568;48.176;16.316;2023-12-22T11:57:32;6.60;99.90
20815;DHT22;10568;48.176;16.316;2023-12-22T12:02:30;6.80;99.90
20815;DHT22;10568;48.176;16.316;2023-12-22T12:04:58;6.80;99.90
20815;DHT22;10568;48.176;16.316;2023-12-22T12:07:46;6.70;99.90
20815;DHT22;10568;48.176;16.316;2023-12-22T12:13:10;6.70;99.90
20815;DHT22;10568;48.176;16.316;2023-12-22T12:15:36;6.70;99.90
20815;DHT22;10568;48.176;16.316;2023-12-22T12:18:03;6.70;99.90
20815;DHT22;10568;48.176;16.316;2023-12-22T12:20:30;6.70;99.90
20815;DHT22;10568;48.176;16.316;2023-12-22T12:22:55;6.60;99.90
20815;DHT22;10568;48.176;16.316;2023-12-22T12:25:29;6.60;99.90
20815;DHT22;10568;48.176;16.316;2023-12-22T12:28:07;6.50;99.90
20815;DHT22;10568;48.176;16.316;2023-12-22T12:30:35;6.50;99.90
20815;DHT22;10568;48.176;16.316;2023-12-22T12:33:08;6.50;99.90
20815;DHT22;10568;48.176;16.316;2023-12-22T12:35:35;6.50;99.90
20815;DHT22;10568;48.176;16.316;2023-12-22T12:38:03;6.50;99.90
20815;DHT22;10568;48.176;16.316;2023-12-22T12:40:28;6.50;99.90
20815;DHT22;10568;48.176;16.316;2023-12-22T12:42:59;6.50;99.90
20815;DHT22;10568;48.176;16.316;2023-12-22T12:45:25;6.60;99.90
20815;DHT22;10568;48.176;16.316;2023-12-22T12:47:59;6.50;99.90
20815;DHT22;10568;48.176;16.316;2023-12-22T12:50:26;6.60;99.90
20815;DHT22;10568;48.176;16.316;2023-12-22T12:52:52;6.60;99.90
20815;DHT22;10568;48.176;16.316;2023-12-22T12:55:22;6.60;99.90
20815;DHT22;10568;48.176;16.316;2023-12-22T12:57:49;6.60;99.90
20815;DHT22;10568;48.176;16.316;2023-12-22T13:00:17;6.60;99.90
20815;DHT22;10568;48.176;16.316;2023-12-22T13:02:42;6.50;99.90
20815;DHT22;10568;48.176;16.316;2023-12-22T13:05:08;6.50;99.90
20815;DHT22;10568;48.176;16.316;2023-12-22T13:07:36;6.50;99.90
20815;DHT22;10568;48.176;16.316;2023-12-22T13:10:04;6.40;99.90
20815;DHT22;10568;48.176;16.316;2023-12-22T13:12:32;6.50;99.90
20815;DHT22;10568;48.176;16.316;2023-12-22T13:15:02;6.50;99.90
20815;DHT22;10568;48.176;16.316;2023-12-22T13:17:28;6.50;99.90
20815;DHT22;10568;48.176;16.316;2023-12-22T13:19:54;6.40;99.90
20815;DHT22;10568;48.176;16.316;2023-12-22T13:22:20;6.50;99.90
20815;DHT22;10568;48.176;16.316;2023-12-22T13:24:57;6.40;99.90
20815;DHT22;10568;48.176;16.316;2023-12-22T13:27:23;6.40;99.90
20815;DHT22;10568;48.176;16.316;2023-12-22T13:29:49;6.40;99.90
20815;DHT22;10568;48.176;16.316;2023-12-22T13:32:19;6.30;99.90
20815;DHT22;10568;48.176;16.316;2023-12-22T13:34:55;6.30;99.90
20815;DHT22;10568;48.176;16.316;2023-12-22T13:37:22;6.40;99.90
20815;DHT22;10568;48.176;16.316;2023-12-22T13:39:52;6.40;99.90
20815;DHT22;10568;48.176;16.316;2023-12-22T13:42:18;6.40;99.90
20815;DHT22;10568;48.176;16.316;2023-12-22T13:44:49;6.50;99.90
20815;DHT22;10568;48.176;16.316;2023-12-22T13:47:19;6.50;99.90
20815;DHT22;10568;48.176;16.316;2023-12-22T13:49:47;6.50;99.90
20815;DHT22;10568;48.176;16.316;2023-12-22T13:52:30;6.50;99.90
20815;DHT22;10568;48.176;16.316;2023-12-22T13:55:13;6.50;99.90
20815;DHT22;10568;48.176;16.316;2023-12-22T13:57:40;6.50;99.90
20815;DHT22;10568;48.176;16.316;2023-12-22T14:02:47;6.50;99.90
20815;DHT22;10568;48.176;16.316;2023-12-22T14:05:17;6.50;99.90
20815;DHT22;10568;48.176;16.316;2023-12-22T14:07:46;6.50;99.90
20815;DHT22;10568;48.176;16.316;2023-12-22T14:10:12;6.60;99.90
20815;DHT22;10568;48.176;16.316;2023-12-22T14:12:38;6.70;99.90
20815;DHT22;10568;48.176;16.316;2023-12-22T14:15:09;6.70;99.90
20815;DHT22;10568;48.176;16.316;2023-12-22T14:17:35;6.80;99.90
20815;DHT22;10568;48.176;16.316;2023-12-22T14:20:03;6.70;99.90
20815;DHT22;10568;48.176;16.316;2023-12-22T14:22:35;6.70;99.90
20815;DHT22;10568;48.176;16.316;2023-12-22T14:25:01;6.80;99.90
20815;DHT22;10568;48.176;16.316;2023-12-22T14:27:28;6.80;99.90
20815;DHT22;10568;48.176;16.316;2023-12-22T14:29:53;6.70;99.90
20815;DHT22;10568;48.176;16.316;2023-12-22T14:32:19;6.70;99.90
20815;DHT22;10568;48.176;16.316;2023-12-22T14:34:45;6.70;99.90
20815;DHT22;10568;48.176;16.316;2023-12-22T14:37:11;6.60;99.90
20815;DHT22;10568;48.176;16.316;2023-12-22T14:39:37;6.60;99.90
20815;DHT22;10568;48.176;16.316;2023-12-22T14:42:03;6.50;99.90
20815;DHT22;10568;48.176;16.316;2023-12-22T14:44:29;6.40;99.90
20815;DHT22;10568;48.176;16.316;2023-12-22T14:46:55;6.30;99.90
20815;DHT22;10568;48.176;16.316;2023-12-22T14:49:21;6.20;99.90
20815;DHT22;10568;48.176;16.316;2023-12-22T14:51:47;6.20;99.90
20815;DHT22;10568;48.176;16.316;2023-12-22T14:54:17;6.10;99.90
20815;DHT22;10568;48.176;16.316;2023-12-22T14:56:43;6.00;99.90
20815;DHT22;10568;48.176;16.316;2023-12-22T14:59:09;5.90;99.90
20815;DHT22;10568;48.176;16.316;2023-12-22T15:01:36;5.80;99.90
20815;DHT22;10568;48.176;16.316;2023-12-22T15:04:02;5.60;99.90
20815;DHT22;10568;48.176;16.316;2023-12-22T15:06:29;5.40;99.90
20815;DHT22;10568;48.176;16.316;2023-12-22T15:08:55;5.20;99.90
20815;DHT22;10568;48.176;16.316;2023-12-22T15:11:21;5.10;99.90
20815;DHT22;10568;48.176;16.316;2023-12-22T15:13:46;5.00;99.90
20815;DHT22;10568;48.176;16.316;2023-12-22T15:16:12;4.90;99.90
20815;DHT22;10568;48.176;16.316;2023-12-22T15:18:37;4.80;99.90
20815;DHT22;10568;48.176;16.316;2023-12-22T15:21:04;4.80;99.90
20815;DHT22;10568;48.176;16.316;2023-12-22T15:23:30;4.80;99.90
20815;DHT22;10568;48.176;16.316;2023-12-22T15:25:59;4.70;99.90
20815;DHT22;10568;48.176;16.316;2023-12-22T15:28:25;4.80;99.90
20815;DHT22;10568;48.176;16.316;2023-12-22T15:30:51;4.70;99.90
20815;DHT22;10568;48.176;16.316;2023-12-22T15:33:17;4.70;99.90
20815;DHT22;10568;48.176;16.316;2023-12-22T15:35:43;4.80;99.90
20815;DHT22;10568;48.176;16.316;2023-12-22T15:38:09;4.70;99.90
20815;DHT22;10568;48.176;16.316;2023-12-22T15:40:36;4.70;99.90
20815;DHT22;10568;48.176;16.316;2023-12-22T15:43:02;4.80;99.90
20815;DHT22;10568;48.176;16.316;2023-12-22T15:45:27;4.80;99.90
20815;DHT22;10568;48.176;16.316;2023-12-22T15:47:53;4.70;99.90
20815;DHT22;10568;48.176;16.316;2023-12-22T15:50:19;4.80;99.90
20815;DHT22;10568;48.176;16.316;2023-12-22T15:52:44;4.90;99.90